Time;durP1;ratioP1;P1;durP2;ratioP2;P2;SDS_P1;SDS_P2;PMS_P1;PMS_P2;Temp;Humidity;BMP_temperature;BMP_pressure;BME280_temperature;BME280_humidity;BME280_pressure;Samples;Min_cycle;Max_cycle;Signal;HPM_P1;HPM_P2
2023/03/27 00:00:44;;;;;;;;;;;;;;;;;;5093114;28;19960;-66
2023/03/27 00:03:11;;;;;;;;;;;;;;;;;;5093562;28;19912;-66
2023/03/27 00:05:37;;;;;;;;;;;;;;;;;;5093813;28;19908;-66
2023/03/27 00:08:03;;;;;;;;;;;;;;;;;;5075038;28;20383;-66
2023/03/27 00:10:28;;;;;;;;;;;;;;;;;;5075303;28;19915;-66
2023/03/27 00:12:54;;;;;;;;;;;;;;;;;;5093378;28;19916;-67
2023/03/27 00:15:20;;;;;;;;;;;;;;;;;;5074961;28;19918;-66
2023/03/27 00:17:46;;;;;;;;;;;;;;;;;;5093742;28;20011;-66
2023/03/27 00:20:12;;;;;;;;;;;;;;;;;;5077854;28;19958;-66
2023/03/27 00:22:39;;;;;;;;;;;;;;;;;;5078602;28;20280;-66
2023/03/27 00:25:05;;;;;;;;;;;;;;;;;;5097423;28;20356;-66
2023/03/27 00:27:31;;;;;;;;;;;;;;;;;;5096740;28;19908;-67
2023/03/27 00:29:57;;;;;;;;;;;;;;;;;;5097070;28;20284;-66
2023/03/27 00:32:23;;;;;;;;;;;;;;;;;;5078632;28;20273;-66
2023/03/27 00:34:49;;;;;;;;;;;;;;;;;;5096596;28;20337;-66
2023/03/27 00:37:15;;;;;;;;;;;;;;;;;;5097002;28;20033;-66
2023/03/27 00:39:41;;;;;;;;;;;;;;;;;;5096964;28;19965;-65
2023/03/27 00:42:07;;;;;;;;;;;;;;;;;;5096552;28;19909;-66
2023/03/27 00:44:33;;;;;;;;;;;;;;;;;;5096820;28;20284;-66
2023/03/27 00:47:01;;;;;;;;;;;;;;;;;;5096762;28;19953;-67
2023/03/27 00:49:27;;;;;;;;;;;;;;;;;;5096257;28;20361;-66
2023/03/27 00:51:56;;;;;;;;;;;;;;;;;;5096915;28;19909;-66
2023/03/27 00:54:25;;;;;;;;;;;;;;;;;;5096867;28;19961;-66
2023/03/27 00:56:51;;;;;;;;;;;;;;;;;;5096162;28;19912;-66
2023/03/27 00:59:17;;;;;;;;;;;;;;;;;;5096455;28;20020;-66
2023/03/27 01:01:42;;;;;;;;;;;;;;;;;;5096491;28;20002;-66
2023/03/27 01:04:08;;;;;;;;;;;;;;;;;;5096036;28;19915;-66
2023/03/27 01:06:34;;;;;;;;;;;;;;;;;;5078160;28;19908;-66
2023/03/27 01:09:00;;;;;;;;;;;;;;;;;;5096376;28;19912;-66
2023/03/27 01:11:26;;;;;;;;;;;;;;;;;;5095899;28;20280;-66
2023/03/27 01:13:52;;;;;;;;;;;;;;;;;;5077959;28;19923;-66
2023/03/27 01:16:18;;;;;;;;;;;;;;;;;;5096211;28;19908;-66
2023/03/27 01:18:45;;;;;;;;;;;;;;;;;;5095722;28;19992;-66
2023/03/27 01:21:11;;;;;;;;;;;;;;;;;;5077876;28;19915;-66
2023/03/27 01:23:37;;;;;;;;;;;;;;;;;;5095651;28;19909;-66
2023/03/27 01:26:03;;;;;;;;;;;;;;;;;;5096032;28;20007;-67
2023/03/27 01:28:29;;;;;;;;;;;;;;;;;;5095986;28;19913;-67
2023/03/27 01:30:55;;;;;;;;;;;;;;;;;;5095432;28;20033;-68
2023/03/27 01:33:21;;;;;;;;;;;;;;;;;;5095640;28;19924;-67
2023/03/27 01:35:46;;;;;;;;;;;;;;;;;;5096116;28;19908;-67
2023/03/27 01:38:12;;;;;;;;;;;;;;;;;;5095435;28;19908;-67
2023/03/27 01:40:38;;;;;;;;;;;;;;;;;;5077633;28;19973;-67
2023/03/27 01:43:04;;;;;;;;;;;;;;;;;;5095678;28;20011;-67
2023/03/27 01:45:30;;;;;;;;;;;;;;;;;;5095430;28;20321;-67
2023/03/27 01:47:56;;;;;;;;;;;;;;;;;;5096233;28;19931;-67
2023/03/27 01:50:22;;;;;;;;;;;;;;;;;;5095502;28;19909;-66
2023/03/27 01:52:48;;;;;;;;;;;;;;;;;;5095399;28;19916;-66
2023/03/27 01:55:17;;;;;;;;;;;;;;;;;;5095428;28;20269;-66
2023/03/27 01:57:45;;;;;;;;;;;;;;;;;;5077207;28;19915;-66
2023/03/27 02:00:13;;;;;;;;;;;;;;;;;;5094948;28;19912;-66
2023/03/27 02:02:40;;;;;;;;;;;;;;;;;;5095274;28;19915;-66
2023/03/27 02:05:06;;;;;;;;;;;;;;;;;;5095804;28;20359;-66
2023/03/27 02:07:32;;;;;;;;;;;;;;;;;;5076645;28;19940;-66
2023/03/27 02:09:58;;;;;;;;;;;;;;;;;;5095096;28;19958;-66
2023/03/27 02:12:25;;;;;;;;;;;;;;;;;;5095071;28;19912;-66
2023/03/27 02:14:50;;;;;;;;;;;;;;;;;;5094802;28;19916;-67
2023/03/27 02:17:17;;;;;;;;;;;;;;;;;;5076960;28;19915;-67
2023/03/27 02:19:46;;;;;;;;;;;;;;;;;;5095022;28;19962;-67
2023/03/27 02:22:12;;;;;;;;;;;;;;;;;;5094567;28;19908;-67
2023/03/27 02:24:39;;;;;;;;;;;;;;;;;;5095432;28;20291;-67
2023/03/27 02:27:04;;;;;;;;;;;;;;;;;;5094490;28;19915;-67
2023/03/27 02:29:30;;;;;;;;;;;;;;;;;;5094759;28;19912;-67
2023/03/27 02:31:56;;;;;;;;;;;;;;;;;;5076426;28;19915;-67
2023/03/27 02:34:22;;;;;;;;;;;;;;;;;;5094313;28;20328;-67
2023/03/27 02:36:49;;;;;;;;;;;;;;;;;;5095298;28;20311;-67
2023/03/27 02:39:15;;;;;;;;;;;;;;;;;;5076411;28;19908;-67
2023/03/27 02:41:41;;;;;;;;;;;;;;;;;;5093611;28;19909;-67
2023/03/27 02:44:07;;;;;;;;;;;;;;;;;;5094538;28;19915;-67
2023/03/27 02:46:33;;;;;;;;;;;;;;;;;;5094547;28;20006;-67
2023/03/27 02:48:59;;;;;;;;;;;;;;;;;;5094192;28;19912;-67
2023/03/27 02:51:25;;;;;;;;;;;;;;;;;;5076318;28;19962;-67
2023/03/27 02:53:51;;;;;;;;;;;;;;;;;;5094308;28;19920;-67
2023/03/27 02:56:17;;;;;;;;;;;;;;;;;;5094039;28;19915;-67
2023/03/27 02:58:43;;;;;;;;;;;;;;;;;;5094871;28;19908;-67
2023/03/27 03:01:09;;;;;;;;;;;;;;;;;;5094330;28;20018;-67
2023/03/27 03:03:36;;;;;;;;;;;;;;;;;;5075766;28;20391;-67
2023/03/27 03:06:06;;;;;;;;;;;;;;;;;;5094219;28;20041;-67
2023/03/27 03:08:36;;;;;;;;;;;;;;;;;;5094168;28;19995;-68
2023/03/27 03:11:02;;;;;;;;;;;;;;;;;;5075617;28;19908;-67
2023/03/27 03:13:28;;;;;;;;;;;;;;;;;;5094077;28;19922;-67
2023/03/27 03:15:54;;;;;;;;;;;;;;;;;;5094089;28;19947;-67
2023/03/27 03:18:20;;;;;;;;;;;;;;;;;;5075483;28;19955;-67
2023/03/27 03:20:46;;;;;;;;;;;;;;;;;;5094084;28;19977;-66
2023/03/27 03:23:12;;;;;;;;;;;;;;;;;;5093792;28;19959;-66
2023/03/27 03:25:38;;;;;;;;;;;;;;;;;;5075890;28;19916;-67
2023/03/27 03:28:07;;;;;;;;;;;;;;;;;;5094258;28;19908;-66
2023/03/27 03:30:32;;;;;;;;;;;;;;;;;;5093511;28;19915;-66
2023/03/27 03:32:58;;;;;;;;;;;;;;;;;;5075533;28;19924;-66
2023/03/27 03:35:24;;;;;;;;;;;;;;;;;;5093833;28;19908;-67
2023/03/27 03:37:51;;;;;;;;;;;;;;;;;;5093398;28;19919;-67
2023/03/27 03:40:17;;;;;;;;;;;;;;;;;;5093805;28;19961;-67
2023/03/27 03:42:43;;;;;;;;;;;;;;;;;;5093771;28;20276;-67
2023/03/27 03:45:10;;;;;;;;;;;;;;;;;;5093377;28;19953;-67
2023/03/27 03:47:36;;;;;;;;;;;;;;;;;;5093718;28;19909;-67
2023/03/27 03:50:01;;;;;;;;;;;;;;;;;;5075561;28;19920;-67
2023/03/27 03:52:27;;;;;;;;;;;;;;;;;;5093381;28;19912;-67
2023/03/27 03:54:53;;;;;;;;;;;;;;;;;;5096412;28;19965;-67
2023/03/27 03:57:19;;;;;;;;;;;;;;;;;;5097840;28;19915;-67
2023/03/27 03:59:46;;;;;;;;;;;;;;;;;;5097560;28;20005;-67
2023/03/27 04:02:26;;;;;;;;;;;;;;;;;;5098253;28;19956;-66
2023/03/27 04:04:52;;;;;;;;;;;;;;;;;;5098032;28;19908;-68
2023/03/27 04:07:20;;;;;;;;;;;;;;;;;;5097336;28;19999;-68
2023/03/27 04:09:46;;;;;;;;;;;;;;;;;;5098126;28;19912;-67
2023/03/27 04:12:12;;;;;;;;;;;;;;;;;;5098112;28;19908;-68
2023/03/27 04:14:38;;;;;;;;;;;;;;;;;;5097803;28;19919;-69
2023/03/27 04:17:04;;;;;;;;;;;;;;;;;;5097690;28;19908;-68
2023/03/27 04:19:30;;;;;;;;;;;;;;;;;;5096834;28;19945;-67
2023/03/27 04:21:57;;;;;;;;;;;;;;;;;;5078968;28;19909;-66
2023/03/27 04:24:22;;;;;;;;;;;;;;;;;;5095948;28;19988;-67
2023/03/27 04:26:48;;;;;;;;;;;;;;;;;;5096180;28;19908;-67
2023/03/27 04:29:14;;;;;;;;;;;;;;;;;;5096996;28;19991;-68
2023/03/27 04:31:45;;;;;;;;;;;;;;;;;;5095567;28;19912;-67
2023/03/27 04:34:11;;;;;;;;;;;;;;;;;;5078461;28;19924;-67
2023/03/27 04:36:37;;;;;;;;;;;;;;;;;;5095825;28;19908;-68
2023/03/27 04:39:03;;;;;;;;;;;;;;;;;;5076473;28;19953;-68
2023/03/27 04:41:29;;;;;;;;;;;;;;;;;;5095722;28;19951;-66
2023/03/27 04:43:54;;;;;;;;;;;;;;;;;;5096813;28;19944;-67
2023/03/27 04:46:20;;;;;;;;;;;;;;;;;;5096351;28;19919;-68
2023/03/27 04:48:46;;;;;;;;;;;;;;;;;;5094894;28;19908;-68
2023/03/27 04:51:12;;;;;;;;;;;;;;;;;;5096259;28;20011;-68
2023/03/27 04:53:41;;;;;;;;;;;;;;;;;;5096874;28;19916;-67
2023/03/27 04:56:08;;;;;;;;;;;;;;;;;;5096294;28;19908;-68
2023/03/27 04:58:34;;;;;;;;;;;;;;;;;;5094883;28;19997;-68
2023/03/27 05:01:01;;;;;;;;;;;;;;;;;;5094525;28;19962;-68
2023/03/27 05:03:27;;;;;;;;;;;;;;;;;;5094146;28;19931;-68
2023/03/27 05:05:53;;;;;;;;;;;;;;;;;;5093900;28;19961;-68
2023/03/27 05:08:19;;;;;;;;;;;;;;;;;;5076259;28;20219;-68
2023/03/27 05:10:45;;;;;;;;;;;;;;;;;;5093950;28;19909;-67
2023/03/27 05:13:11;;;;;;;;;;;;;;;;;;5095207;28;19916;-67
2023/03/27 05:15:37;;;;;;;;;;;;;;;;;;5078179;28;19957;-68
2023/03/27 05:18:05;;;;;;;;;;;;;;;;;;5078033;28;19908;-68
2023/03/27 05:20:31;;;;;;;;;;;;;;;;;;5096168;28;20253;-67
2023/03/27 05:22:57;;;;;;;;;;;;;;;;;;5095206;28;19956;-67
2023/03/27 05:25:23;;;;;;;;;;;;;;;;;;5096106;28;20002;-67
2023/03/27 05:27:49;;;;;;;;;;;;;;;;;;5094867;28;19908;-66
2023/03/27 05:30:15;;;;;;;;;;;;;;;;;;5075046;28;19916;-66
2023/03/27 05:32:41;;;;;;;;;;;;;;;;;;5074517;28;19971;-67
2023/03/27 05:35:08;;;;;;;;;;;;;;;;;;5074357;28;19908;-67
2023/03/27 05:37:35;;;;;;;;;;;;;;;;;;5076135;28;19935;-67
2023/03/27 05:40:01;;;;;;;;;;;;;;;;;;5088155;28;19952;-66
2023/03/27 05:42:27;;;;;;;;;;;;;;;;;;5090596;28;19919;-66
2023/03/27 05:44:52;;;;;;;;;;;;;;;;;;5093698;28;19908;-67
2023/03/27 05:47:19;;;;;;;;;;;;;;;;;;5073630;28;19908;-66
2023/03/27 05:49:45;;;;;;;;;;;;;;;;;;5090764;28;19914;-66
2023/03/27 05:52:11;;;;;;;;;;;;;;;;;;5090948;28;19908;-67
2023/03/27 05:54:37;;;;;;;;;;;;;;;;;;5089646;28;19908;-66
2023/03/27 05:57:04;;;;;;;;;;;;;;;;;;5074957;28;20522;-66
2023/03/27 05:59:37;;;;;;;;;;;;;;;;;;5088026;28;19966;-68
2023/03/27 06:02:04;;;;;;;;;;;;;;;;;;5092914;28;19908;-66
2023/03/27 06:04:30;;;;;;;;;;;;;;;;;;5080643;28;19981;-67
2023/03/27 06:06:56;;;;;;;;;;;;;;;;;;5091383;28;19912;-66
2023/03/27 06:09:22;;;;;;;;;;;;;;;;;;5089212;28;19912;-67
2023/03/27 06:11:48;;;;;;;;;;;;;;;;;;5087170;28;19916;-67
2023/03/27 06:14:14;;;;;;;;;;;;;;;;;;5069070;28;19920;-66
2023/03/27 06:16:40;;;;;;;;;;;;;;;;;;5077866;28;19969;-66
2023/03/27 06:19:06;;;;;;;;;;;;;;;;;;5081812;28;20375;-68
2023/03/27 06:21:32;;;;;;;;;;;;;;;;;;5081377;28;20272;-71
2023/03/27 06:23:58;;;;;;;;;;;;;;;;;;5086191;28;19991;-67
2023/03/27 06:26:26;;;;;;;;;;;;;;;;;;5087447;28;20296;-68
2023/03/27 06:28:52;;;;;;;;;;;;;;;;;;5093964;28;20356;-68
2023/03/27 06:31:18;;;;;;;;;;;;;;;;;;5093131;28;19920;-67
2023/03/27 06:33:45;;;;;;;;;;;;;;;;;;5092879;28;20010;-67
2023/03/27 06:36:11;;;;;;;;;;;;;;;;;;5093818;28;19991;-68
2023/03/27 06:38:37;;;;;;;;;;;;;;;;;;5088125;28;20007;-67
2023/03/27 06:41:03;;;;;;;;;;;;;;;;;;5077883;28;19951;-67
2023/03/27 06:43:29;;;;;;;;;;;;;;;;;;5083793;28;19912;-67
2023/03/27 06:46:01;;;;;;;;;;;;;;;;;;5079450;28;19923;-67
2023/03/27 06:48:27;;;;;;;;;;;;;;;;;;5081451;28;20577;-67
2023/03/27 06:50:54;;;;;;;;;;;;;;;;;;5082055;28;20048;-65
2023/03/27 06:53:29;;;;;;;;;;;;;;;;;;5086152;28;20372;-65
2023/03/27 06:55:55;;;;;;;;;;;;;;;;;;5081387;28;19912;-66
2023/03/27 06:58:21;;;;;;;;;;;;;;;;;;5052098;28;20114;-67
2023/03/27 07:00:48;;;;;;;;;;;;;;;;;;5051319;28;19912;-65
2023/03/27 07:03:14;;;;;;;;;;;;;;;;;;5083318;28;19915;-66
2023/03/27 07:05:40;;;;;;;;;;;;;;;;;;5090793;28;20272;-67
2023/03/27 07:08:06;;;;;;;;;;;;;;;;;;5073824;28;20037;-67
2023/03/27 07:10:32;;;;;;;;;;;;;;;;;;5091616;28;19916;-69
2023/03/27 07:12:58;;;;;;;;;;;;;;;;;;5092380;28;19912;-67
2023/03/27 07:15:24;;;;;;;;;;;;;;;;;;5091268;28;20364;-67
2023/03/27 07:21:07;;;;;;;;;;;;;;;;;;5088450;27;19918;-68
2023/03/27 07:24:07;;;;;;;;;;;;;;;;;;5107873;27;19971;-67
2023/03/27 07:26:33;;;;;;;;;;;;;;;;;;5108076;28;19958;-67
2023/03/27 07:28:59;;;;;;;;;;;;;;;;;;5106584;28;20329;-67
2023/03/27 07:31:26;;;;;;;;;;;;;;;;;;5106987;28;19999;-66
2023/03/27 07:34:13;;;;;;;;;;;;;;;;;;5089300;27;19918;-66
2023/03/27 07:38:48;;;;;;;;;;;;;;;;;;5088397;27;19916;-65
2023/03/27 07:43:18;;;;;;;;;;;;;;;;;;5108677;27;19912;-66
2023/03/27 07:45:44;;;;;;;;;;;;;;;;;;5108727;28;20531;-66
2023/03/27 07:49:31;;;;;;;;;;;;;;;;;;5086866;27;19922;-66
2023/03/27 07:51:57;;;;;;;;;;;;;;;;;;5087111;28;20006;-67
2023/03/27 07:54:23;;;;;;;;;;;;;;;;;;5082950;28;19989;-68
2023/03/27 07:57:17;;;;;;;;;;;;;;;;;;5143989;27;19916;-68
2023/03/27 08:00:26;;;;;;;;;;;;;;;;;;5131147;27;20046;-68
2023/03/27 08:02:52;;;;;;;;;;;;;;;;;;5131006;28;19959;-67
2023/03/27 08:05:18;;;;;;;;;;;;;;;;;;5129827;28;20022;-68
2023/03/27 08:08:09;;;;;;;;;;;;;;;;;;5124964;27;19912;-69
2023/03/27 08:10:35;;;;;;;;;;;;;;;;;;5118730;27;19995;-68
2023/03/27 08:13:01;;;;;;;;;;;;;;;;;;5106118;28;20325;-68
2023/03/27 08:15:28;;;;;;;;;;;;;;;;;;5107341;28;19912;-69
2023/03/27 08:17:55;;;;;;;;;;;;;;;;;;5090148;28;19908;-69
2023/03/27 08:20:29;;;;;;;;;;;;;;;;;;5107420;27;19916;-69
2023/03/27 08:29:03;;;;;;;;;;;;;;;;;;5170704;27;20466;-69
2023/03/27 08:33:46;;;;;;;;;;;;;;;;;;5107954;27;19916;-68
2023/03/27 08:37:07;;;;;;;;;;;;;;;;;;5088065;28;20283;-69
2023/03/27 08:40:52;;;;;;;;;;;;;;;;;;5088396;27;19935;-69
2023/03/27 08:43:18;;;;;;;;;;;;;;;;;;5085076;28;20377;-69
2023/03/27 08:45:44;;;;;;;;;;;;;;;;;;5086962;28;19948;-69
2023/03/27 08:48:10;;;;;;;;;;;;;;;;;;5088259;28;20283;-68
2023/03/27 08:50:37;;;;;;;;;;;;;;;;;;5087206;28;19958;-69
2023/03/27 08:53:04;;;;;;;;;;;;;;;;;;5087271;28;20366;-70
2023/03/27 08:57:53;;;;;;;;;;;;;;;;;;5106503;27;19912;-69
2023/03/27 09:03:39;;;;;;;;;;;;;;;;;;5105378;27;19920;-69
2023/03/27 09:06:07;;;;;;;;;;;;;;;;;;5102185;28;19938;-69
2023/03/27 09:08:33;;;;;;;;;;;;;;;;;;5094284;28;19912;-69
2023/03/27 09:13:33;;;;;;;;;;;;;;;;;;5083063;27;20376;-68
2023/03/27 09:16:00;;;;;;;;;;;;;;;;;;5067786;28;19920;-68
2023/03/27 09:20:41;;;;;;;;;;;;;;;;;;5086372;27;2400174;-68
2023/03/27 09:27:18;;;;;;;;;;;;;;;;;;5091268;27;2190137;-69
2023/03/27 09:29:44;;;;;;;;;;;;;;;;;;5152005;27;19911;-69
2023/03/27 09:32:10;;;;;;;;;;;;;;;;;;5171064;27;19918;-70
2023/03/27 09:34:36;;;;;;;;;;;;;;;;;;5151883;27;19911;-69
2023/03/27 09:40:12;;;;;;;;;;;;;;;;;;5089678;27;19916;-69
2023/03/27 09:42:38;;;;;;;;;;;;;;;;;;5087987;28;20574;-69
2023/03/27 09:45:53;;;;;;;;;;;;;;;;;;5110331;27;19938;-69
2023/03/27 09:48:20;;;;;;;;;;;;;;;;;;5109093;28;19918;-69
2023/03/27 09:50:48;;;;;;;;;;;;;;;;;;5106190;28;19908;-68
2023/03/27 09:53:14;;;;;;;;;;;;;;;;;;5108209;28;20003;-70
2023/03/27 09:55:39;;;;;;;;;;;;;;;;;;5109314;28;20002;-70
2023/03/27 09:58:06;;;;;;;;;;;;;;;;;;5109174;28;19937;-70
2023/03/27 10:00:44;;;;;;;;;;;;;;;;;;5110696;28;20015;-70
2023/03/27 10:03:10;;;;;;;;;;;;;;;;;;5110188;28;19926;-70
2023/03/27 10:05:37;;;;;;;;;;;;;;;;;;5106829;28;19967;-69
2023/03/27 10:08:03;;;;;;;;;;;;;;;;;;5106774;28;20376;-70
2023/03/27 10:10:31;;;;;;;;;;;;;;;;;;5107087;28;19955;-70
2023/03/27 10:12:57;;;;;;;;;;;;;;;;;;5108457;28;19919;-69
2023/03/27 10:15:26;;;;;;;;;;;;;;;;;;5108218;28;20368;-69
2023/03/27 10:17:52;;;;;;;;;;;;;;;;;;5108718;28;20248;-70
2023/03/27 10:20:18;;;;;;;;;;;;;;;;;;5106678;28;19912;-70
2023/03/27 10:22:44;;;;;;;;;;;;;;;;;;5108305;28;19912;-69
2023/03/27 10:25:10;;;;;;;;;;;;;;;;;;5108485;28;20296;-69
2023/03/27 10:27:39;;;;;;;;;;;;;;;;;;5107862;28;20292;-69
2023/03/27 10:30:05;;;;;;;;;;;;;;;;;;5106735;28;19912;-69
2023/03/27 10:32:31;;;;;;;;;;;;;;;;;;5106716;28;20010;-70
2023/03/27 10:34:57;;;;;;;;;;;;;;;;;;5097776;28;19908;-70
2023/03/27 10:37:25;;;;;;;;;;;;;;;;;;5094649;28;19916;-68
2023/03/27 10:39:51;;;;;;;;;;;;;;;;;;5096493;28;20033;-70
2023/03/27 10:42:17;;;;;;;;;;;;;;;;;;5100260;28;20013;-69
2023/03/27 10:44:43;;;;;;;;;;;;;;;;;;5107000;28;19919;-69
2023/03/27 10:47:11;;;;;;;;;;;;;;;;;;5095987;28;19945;-70
2023/03/27 10:49:37;;;;;;;;;;;;;;;;;;5103722;28;20360;-69
2023/03/27 10:52:03;;;;;;;;;;;;;;;;;;5107729;28;19931;-69
2023/03/27 10:54:29;;;;;;;;;;;;;;;;;;5107522;28;19914;-69
2023/03/27 10:56:55;;;;;;;;;;;;;;;;;;5095935;28;20472;-69
2023/03/27 10:59:22;;;;;;;;;;;;;;;;;;5092906;28;20364;-69
2023/03/27 11:01:48;;;;;;;;;;;;;;;;;;5092091;28;20461;-69
2023/03/27 11:04:14;;;;;;;;;;;;;;;;;;5093037;28;19913;-69
2023/03/27 11:06:42;;;;;;;;;;;;;;;;;;5093487;28;19965;-69
2023/03/27 11:09:08;;;;;;;;;;;;;;;;;;5093252;28;19912;-69
2023/03/27 11:11:34;;;;;;;;;;;;;;;;;;5083460;28;19916;-69
2023/03/27 11:14:01;;;;;;;;;;;;;;;;;;5095857;28;20384;-69
2023/03/27 11:16:27;;;;;;;;;;;;;;;;;;5092271;28;19908;-69
2023/03/27 11:18:53;;;;;;;;;;;;;;;;;;5091530;28;19924;-70
2023/03/27 11:21:19;;;;;;;;;;;;;;;;;;5088803;28;19908;-69
2023/03/27 11:23:44;;;;;;;;;;;;;;;;;;5094584;28;19927;-68
2023/03/27 11:26:10;;;;;;;;;;;;;;;;;;5095541;28;19919;-68
2023/03/27 11:28:38;;;;;;;;;;;;;;;;;;5093677;28;19933;-68
2023/03/27 11:31:05;;;;;;;;;;;;;;;;;;5095305;28;20370;-71
2023/03/27 11:33:31;;;;;;;;;;;;;;;;;;5095562;28;19931;-69
2023/03/27 11:35:57;;;;;;;;;;;;;;;;;;5089965;28;19992;-69
2023/03/27 11:38:23;;;;;;;;;;;;;;;;;;5080503;28;20380;-69
2023/03/27 11:40:50;;;;;;;;;;;;;;;;;;5083862;28;19939;-68
2023/03/27 11:43:16;;;;;;;;;;;;;;;;;;5073429;28;19913;-68
2023/03/27 11:45:42;;;;;;;;;;;;;;;;;;5072931;28;19927;-69
2023/03/27 11:48:08;;;;;;;;;;;;;;;;;;5070651;28;20007;-69
2023/03/27 11:50:34;;;;;;;;;;;;;;;;;;5072051;28;19969;-69
2023/03/27 11:53:00;;;;;;;;;;;;;;;;;;5070515;28;19967;-69
2023/03/27 11:55:26;;;;;;;;;;;;;;;;;;5068876;28;20323;-69
2023/03/27 11:57:52;;;;;;;;;;;;;;;;;;5070851;28;19909;-69
2023/03/27 12:00:18;;;;;;;;;;;;;;;;;;5072441;28;19962;-69
2023/03/27 12:02:44;;;;;;;;;;;;;;;;;;5072530;28;19914;-69
2023/03/27 12:05:10;;;;;;;;;;;;;;;;;;5074170;28;19923;-69
2023/03/27 12:07:36;;;;;;;;;;;;;;;;;;5072286;28;19909;-68
2023/03/27 12:10:02;;;;;;;;;;;;;;;;;;5074279;28;19920;-70
2023/03/27 12:12:28;;;;;;;;;;;;;;;;;;5093218;28;19908;-69
2023/03/27 12:14:53;;;;;;;;;;;;;;;;;;5094200;28;19915;-69
2023/03/27 12:17:20;;;;;;;;;;;;;;;;;;5094096;28;19908;-69
2023/03/27 12:19:46;;;;;;;;;;;;;;;;;;5094178;28;19916;-69
2023/03/27 12:22:12;;;;;;;;;;;;;;;;;;5094284;28;20496;-68
2023/03/27 12:24:38;;;;;;;;;;;;;;;;;;5093806;28;20689;-68
2023/03/27 12:27:04;;;;;;;;;;;;;;;;;;5093818;28;19912;-69
2023/03/27 12:29:30;;;;;;;;;;;;;;;;;;5094159;28;19912;-68
2023/03/27 12:31:56;;;;;;;;;;;;;;;;;;5094043;28;20008;-69
2023/03/27 12:34:22;;;;;;;;;;;;;;;;;;5094107;28;19912;-68
2023/03/27 12:36:48;;;;;;;;;;;;;;;;;;5093617;28;19912;-69
2023/03/27 12:39:15;;;;;;;;;;;;;;;;;;5093283;28;19954;-68
2023/03/27 12:41:40;;;;;;;;;;;;;;;;;;5094320;28;20003;-68
2023/03/27 12:44:06;;;;;;;;;;;;;;;;;;5093671;28;19926;-69
2023/03/27 12:46:32;;;;;;;;;;;;;;;;;;5093593;28;19959;-69
2023/03/27 12:48:58;;;;;;;;;;;;;;;;;;5093842;28;19942;-69
2023/03/27 12:51:24;;;;;;;;;;;;;;;;;;5093768;28;19908;-69
2023/03/27 12:53:50;;;;;;;;;;;;;;;;;;5088751;28;19917;-69
2023/03/27 12:56:16;;;;;;;;;;;;;;;;;;5074292;28;19916;-70
2023/03/27 12:58:42;;;;;;;;;;;;;;;;;;5072408;28;20012;-70
2023/03/27 13:01:09;;;;;;;;;;;;;;;;;;5071658;28;19909;-70
2023/03/27 13:03:35;;;;;;;;;;;;;;;;;;5071574;28;19908;-70
2023/03/27 13:06:02;;;;;;;;;;;;;;;;;;5071882;28;20376;-70
2023/03/27 13:08:28;;;;;;;;;;;;;;;;;;5053478;28;19908;-70
2023/03/27 13:10:54;;;;;;;;;;;;;;;;;;5071614;28;20511;-69
2023/03/27 13:13:20;;;;;;;;;;;;;;;;;;5072924;28;19939;-69
2023/03/27 13:15:46;;;;;;;;;;;;;;;;;;5073294;28;19908;-69
2023/03/27 13:18:12;;;;;;;;;;;;;;;;;;5072370;28;20475;-69
2023/03/27 13:20:38;;;;;;;;;;;;;;;;;;5053724;28;20364;-70
2023/03/27 13:23:04;;;;;;;;;;;;;;;;;;5052453;28;20300;-71
2023/03/27 13:25:30;;;;;;;;;;;;;;;;;;5071701;28;19922;-70
2023/03/27 13:27:56;;;;;;;;;;;;;;;;;;5071830;28;19954;-69
2023/03/27 13:30:22;;;;;;;;;;;;;;;;;;5071652;28;19944;-71
2023/03/27 13:32:48;;;;;;;;;;;;;;;;;;5054581;28;19947;-70
2023/03/27 13:35:14;;;;;;;;;;;;;;;;;;5073367;28;19909;-69
2023/03/27 13:37:40;;;;;;;;;;;;;;;;;;5073731;28;19919;-68
2023/03/27 13:40:06;;;;;;;;;;;;;;;;;;5055696;28;19916;-69
2023/03/27 13:42:32;;;;;;;;;;;;;;;;;;5073302;28;20467;-69
2023/03/27 13:44:58;;;;;;;;;;;;;;;;;;5077115;28;19931;-69
2023/03/27 13:47:24;;;;;;;;;;;;;;;;;;5092313;28;19915;-69
2023/03/27 13:49:50;;;;;;;;;;;;;;;;;;5093502;28;19908;-69
2023/03/27 13:52:16;;;;;;;;;;;;;;;;;;5092465;28;19916;-69
2023/03/27 13:54:42;;;;;;;;;;;;;;;;;;5093789;28;19914;-69
2023/03/27 13:57:08;;;;;;;;;;;;;;;;;;5093518;28;19992;-68
2023/03/27 13:59:34;;;;;;;;;;;;;;;;;;5094209;28;19908;-70
2023/03/27 14:02:00;;;;;;;;;;;;;;;;;;5092379;28;20006;-70
2023/03/27 14:04:26;;;;;;;;;;;;;;;;;;5093332;28;19916;-70
2023/03/27 14:06:52;;;;;;;;;;;;;;;;;;5093741;28;20329;-71
2023/03/27 14:09:18;;;;;;;;;;;;;;;;;;5094173;28;19958;-69
2023/03/27 14:11:44;;;;;;;;;;;;;;;;;;5093313;28;19908;-69
2023/03/27 14:14:10;;;;;;;;;;;;;;;;;;5093684;28;19908;-69
2023/03/27 14:16:35;;;;;;;;;;;;;;;;;;5093566;28;19908;-69
2023/03/27 14:19:01;;;;;;;;;;;;;;;;;;5093222;28;19994;-69
2023/03/27 14:21:27;;;;;;;;;;;;;;;;;;5092864;28;20294;-69
2023/03/27 14:23:53;;;;;;;;;;;;;;;;;;5093387;28;20249;-69
2023/03/27 14:26:19;;;;;;;;;;;;;;;;;;5093104;28;19912;-69
2023/03/27 14:28:45;;;;;;;;;;;;;;;;;;5093417;28;19969;-70
2023/03/27 14:31:13;;;;;;;;;;;;;;;;;;5094806;28;19908;-70
2023/03/27 14:33:41;;;;;;;;;;;;;;;;;;5097001;28;19911;-69
2023/03/27 14:36:07;;;;;;;;;;;;;;;;;;5097251;28;20392;-70
2023/03/27 14:38:33;;;;;;;;;;;;;;;;;;5097129;28;19979;-69
2023/03/27 14:40:59;;;;;;;;;;;;;;;;;;5097071;28;19970;-69
2023/03/27 14:43:25;;;;;;;;;;;;;;;;;;5097133;28;20003;-70
2023/03/27 14:45:51;;;;;;;;;;;;;;;;;;5095128;28;19978;-71
2023/03/27 14:48:18;;;;;;;;;;;;;;;;;;5095748;28;19908;-70
2023/03/27 14:50:45;;;;;;;;;;;;;;;;;;5096896;28;19916;-70
2023/03/27 14:53:11;;;;;;;;;;;;;;;;;;5096518;28;19908;-70
2023/03/27 14:55:37;;;;;;;;;;;;;;;;;;5096890;28;19931;-69
2023/03/27 14:58:07;;;;;;;;;;;;;;;;;;5096801;28;19912;-69
2023/03/27 15:00:33;;;;;;;;;;;;;;;;;;5096473;28;19912;-70
2023/03/27 15:03:00;;;;;;;;;;;;;;;;;;5095968;28;19908;-69
2023/03/27 15:05:26;;;;;;;;;;;;;;;;;;5096906;28;19923;-70
2023/03/27 15:07:54;;;;;;;;;;;;;;;;;;5095043;28;19912;-69
2023/03/27 15:10:21;;;;;;;;;;;;;;;;;;5095323;28;20328;-70
2023/03/27 15:12:47;;;;;;;;;;;;;;;;;;5096919;28;19931;-70
2023/03/27 15:15:13;;;;;;;;;;;;;;;;;;5096040;28;20003;-69
2023/03/27 15:17:39;;;;;;;;;;;;;;;;;;5096464;28;19912;-69
2023/03/27 15:20:14;;;;;;;;;;;;;;;;;;5096353;28;19915;-69
2023/03/27 15:22:40;;;;;;;;;;;;;;;;;;5096202;28;19912;-68
2023/03/27 15:25:06;;;;;;;;;;;;;;;;;;5096892;28;20087;-69
2023/03/27 15:27:32;;;;;;;;;;;;;;;;;;5096478;28;20010;-69
2023/03/27 15:29:58;;;;;;;;;;;;;;;;;;5096026;28;19915;-70
2023/03/27 15:32:27;;;;;;;;;;;;;;;;;;5096145;28;19908;-70
2023/03/27 15:34:56;;;;;;;;;;;;;;;;;;5096151;28;19912;-71
2023/03/27 15:37:24;;;;;;;;;;;;;;;;;;5096389;28;19994;-71
2023/03/27 15:39:50;;;;;;;;;;;;;;;;;;5094778;28;19914;-70
2023/03/27 15:42:16;;;;;;;;;;;;;;;;;;5095483;28;19995;-70
2023/03/27 15:44:42;;;;;;;;;;;;;;;;;;5095742;28;20018;-69
2023/03/27 15:47:09;;;;;;;;;;;;;;;;;;5095977;28;19908;-69
2023/03/27 15:49:35;;;;;;;;;;;;;;;;;;5095529;28;19908;-69
2023/03/27 15:52:01;;;;;;;;;;;;;;;;;;5095797;28;19915;-69
2023/03/27 15:54:27;;;;;;;;;;;;;;;;;;5095781;28;19912;-70
2023/03/27 15:56:53;;;;;;;;;;;;;;;;;;5095454;28;20257;-69
2023/03/27 15:59:19;;;;;;;;;;;;;;;;;;5095753;28;19908;-70
2023/03/27 16:01:45;;;;;;;;;;;;;;;;;;5095727;28;19953;-69
2023/03/27 16:04:11;;;;;;;;;;;;;;;;;;5095078;28;20010;-70
2023/03/27 16:06:38;;;;;;;;;;;;;;;;;;5095514;28;19912;-70
2023/03/27 16:09:04;;;;;;;;;;;;;;;;;;5095515;28;19915;-70
2023/03/27 16:11:30;;;;;;;;;;;;;;;;;;5093784;28;19908;-70
2023/03/27 16:13:57;;;;;;;;;;;;;;;;;;5095515;28;20417;-70
2023/03/27 16:16:23;;;;;;;;;;;;;;;;;;5095385;28;20339;-70
2023/03/27 16:18:50;;;;;;;;;;;;;;;;;;5093623;28;19962;-71
2023/03/27 16:21:16;;;;;;;;;;;;;;;;;;5095837;28;19992;-70
2023/03/27 16:23:43;;;;;;;;;;;;;;;;;;5095121;28;19940;-69
2023/03/27 16:26:09;;;;;;;;;;;;;;;;;;5094783;28;20006;-69
2023/03/27 16:28:35;;;;;;;;;;;;;;;;;;5095379;28;20405;-70
2023/03/27 16:31:01;;;;;;;;;;;;;;;;;;5094635;28;19908;-70
2023/03/27 16:33:27;;;;;;;;;;;;;;;;;;5095059;28;20020;-69
2023/03/27 16:35:53;;;;;;;;;;;;;;;;;;5095321;28;19919;-70
2023/03/27 16:38:19;;;;;;;;;;;;;;;;;;5094777;28;19909;-70
2023/03/27 16:40:45;;;;;;;;;;;;;;;;;;5093575;28;19915;-71
2023/03/27 16:43:11;;;;;;;;;;;;;;;;;;5094797;28;20053;-70
2023/03/27 16:45:37;;;;;;;;;;;;;;;;;;5094221;28;19920;-71
2023/03/27 16:48:03;;;;;;;;;;;;;;;;;;5094719;28;19908;-71
2023/03/27 16:50:29;;;;;;;;;;;;;;;;;;5094626;28;19908;-70
2023/03/27 16:52:55;;;;;;;;;;;;;;;;;;5092917;28;19908;-71
2023/03/27 16:55:21;;;;;;;;;;;;;;;;;;5094258;28;19908;-71
2023/03/27 16:57:47;;;;;;;;;;;;;;;;;;5094882;28;19955;-70
2023/03/27 17:00:14;;;;;;;;;;;;;;;;;;5094095;28;19915;-71
2023/03/27 17:02:41;;;;;;;;;;;;;;;;;;5094751;28;20269;-70
2023/03/27 17:05:07;;;;;;;;;;;;;;;;;;5094518;28;19916;-71
2023/03/27 17:07:33;;;;;;;;;;;;;;;;;;5094008;28;19954;-69
2023/03/27 17:09:59;;;;;;;;;;;;;;;;;;5094480;28;19908;-70
2023/03/27 17:12:27;;;;;;;;;;;;;;;;;;5094295;28;19908;-71
2023/03/27 17:14:53;;;;;;;;;;;;;;;;;;5093906;28;19919;-71
2023/03/27 17:17:19;;;;;;;;;;;;;;;;;;5094489;28;19908;-70
2023/03/27 17:19:45;;;;;;;;;;;;;;;;;;5094248;28;19915;-70